createdAt,value
2017-04-03T00:00:46.325Z,1014.73
2017-04-03T00:01:46.856Z,1014.72
2017-04-03T00:02:47.383Z,1014.72
2017-04-03T00:03:47.918Z,1014.70
2017-04-03T00:04:48.445Z,1014.72
2017-04-03T00:05:48.979Z,1014.73
2017-04-03T00:06:49.509Z,1014.71
2017-04-03T00:07:50.037Z,1014.71
2017-04-03T00:08:50.571Z,1014.69
2017-04-03T00:09:51.103Z,1014.70
2017-04-03T00:10:51.638Z,1014.74
2017-04-03T00:11:52.312Z,1014.73
2017-04-03T00:12:52.842Z,1014.72
2017-04-03T00:13:53.224Z,1014.79
2017-04-03T00:14:53.755Z,1014.77
2017-04-03T00:15:54.280Z,1014.78
2017-04-03T00:16:54.834Z,1014.73
2017-04-03T00:17:55.493Z,1014.79
2017-04-03T00:18:55.876Z,1014.74
2017-04-03T00:19:56.402Z,1014.75
2017-04-03T00:20:56.937Z,1014.78
2017-04-03T00:21:57.464Z,1014.76
2017-04-03T00:22:57.994Z,1014.74
2017-04-03T00:23:58.524Z,1014.72
2017-04-03T00:24:59.061Z,1014.74
2017-04-03T00:25:59.597Z,1014.77
2017-04-03T00:27:00.144Z,1014.75
2017-04-03T00:28:00.813Z,1014.72
2017-04-03T00:29:01.193Z,1014.75
2017-04-03T00:30:01.722Z,1014.78
2017-04-03T00:31:02.253Z,1014.75
2017-04-03T00:32:02.931Z,1014.80
2017-04-03T00:33:03.315Z,1014.77
2017-04-03T00:34:03.992Z,1014.81
2017-04-03T00:35:04.372Z,1014.78
2017-04-03T00:36:04.905Z,1014.78
2017-04-03T00:37:05.432Z,1014.84
2017-04-03T00:38:05.962Z,1014.83
2017-04-03T00:39:06.494Z,1014.86
2017-04-03T00:40:07.023Z,1014.91
2017-04-03T00:41:07.564Z,1014.89
2017-04-03T00:42:08.085Z,1014.88
2017-04-03T00:43:08.619Z,1014.94
2017-04-03T00:44:09.145Z,1014.94
2017-04-03T00:45:09.680Z,1014.90
2017-04-03T00:46:10.214Z,1014.90
2017-04-03T00:47:10.737Z,1014.91
2017-04-03T00:48:11.418Z,1014.91
2017-04-03T00:49:11.799Z,1014.96
2017-04-03T00:50:12.332Z,1014.92
2017-04-03T00:51:12.860Z,1014.98
2017-04-03T00:52:13.542Z,1014.96
2017-04-03T00:53:13.919Z,1014.94
2017-04-03T00:54:14.447Z,1014.94
2017-04-03T00:55:14.981Z,1014.89
2017-04-03T00:56:15.508Z,1014.92
2017-04-03T00:57:16.040Z,1014.91
2017-04-03T00:58:16.599Z,1014.92
2017-04-03T00:59:17.105Z,1014.92
2017-04-03T01:00:17.647Z,1014.95
2017-04-03T01:01:18.165Z,1014.98
2017-04-03T01:02:18.702Z,1014.97
2017-04-03T01:03:19.229Z,1014.95
2017-04-03T01:04:19.761Z,1014.94
2017-04-03T01:05:20.294Z,1014.97
2017-04-03T01:06:20.865Z,1014.97
2017-04-03T01:07:21.365Z,1014.95
2017-04-03T01:08:21.899Z,1015.02
2017-04-03T01:09:22.431Z,1015.01
2017-04-03T01:10:22.966Z,1015.00
2017-04-03T01:11:23.493Z,1014.97
2017-04-03T01:12:24.024Z,1014.96
2017-04-03T01:13:24.556Z,1015.01
2017-04-03T01:14:25.090Z,1014.98
2017-04-03T01:15:25.618Z,1014.99
2017-04-03T01:16:26.148Z,1014.94
2017-04-03T01:17:26.676Z,1015.05
2017-04-03T01:18:27.206Z,1014.99
2017-04-03T01:19:27.735Z,1014.96
2017-04-03T01:20:28.263Z,1014.98
2017-04-03T01:21:28.795Z,1014.99
2017-04-03T01:22:29.475Z,1015.01
2017-04-03T01:23:30.002Z,1014.98
2017-04-03T01:24:30.392Z,1014.94
2017-04-03T01:25:30.923Z,1014.95
2017-04-03T01:26:31.453Z,1014.98
2017-04-03T01:27:31.986Z,1014.93
2017-04-03T01:28:32.513Z,1014.96
2017-04-03T01:29:33.191Z,1014.96
2017-04-03T01:30:33.602Z,1014.96
2017-04-03T01:31:34.110Z,1014.89
2017-04-03T01:32:34.668Z,1014.91
2017-04-03T01:33:35.167Z,1014.89
2017-04-03T01:34:35.696Z,1014.91
2017-04-03T01:35:36.230Z,1014.92
2017-04-03T01:36:36.755Z,1015.01
2017-04-03T01:37:37.290Z,1014.95
2017-04-03T01:38:37.829Z,1014.96
2017-04-03T01:39:38.347Z,1014.97
2017-04-03T01:40:38.877Z,1014.97
2017-04-03T01:41:39.409Z,1014.99
2017-04-03T01:42:40.086Z,1014.99
2017-04-03T01:43:40.468Z,1014.96
2017-04-03T01:44:41.000Z,1015.00
2017-04-03T01:45:41.534Z,1015.02
2017-04-03T01:46:42.067Z,1014.93
2017-04-03T01:47:42.606Z,1015.00
2017-04-03T01:48:43.140Z,1015.00
2017-04-03T01:49:43.670Z,1014.97
2017-04-03T01:50:44.202Z,1015.01
2017-04-03T01:51:44.735Z,1015.05
2017-04-03T01:52:45.265Z,1015.05
2017-04-03T01:53:45.800Z,1015.06
2017-04-03T01:54:46.329Z,1015.05
2017-04-03T01:55:46.857Z,1015.12
2017-04-03T01:56:47.386Z,1015.07
2017-04-03T01:57:47.922Z,1015.11
2017-04-03T01:58:48.455Z,1015.07
2017-04-03T01:59:48.984Z,1015.05
2017-04-03T02:00:49.543Z,1015.08
2017-04-03T02:01:50.045Z,1015.12
2017-04-03T02:02:50.576Z,1015.11
2017-04-03T02:03:51.101Z,1015.06
2017-04-03T02:04:51.631Z,1015.10
2017-04-03T02:05:52.160Z,1015.09
2017-04-03T02:06:52.691Z,1015.05
2017-04-03T02:07:53.223Z,1015.08
2017-04-03T02:08:53.752Z,1015.08
2017-04-03T02:09:54.284Z,1014.99
2017-04-03T02:10:54.815Z,1015.05
2017-04-03T02:11:55.493Z,1015.03
2017-04-03T02:12:55.880Z,1015.01
2017-04-03T02:13:56.407Z,1014.99
2017-04-03T02:14:56.936Z,1015.00
2017-04-03T02:15:57.470Z,1015.03
2017-04-03T02:16:58.003Z,1014.99
2017-04-03T02:17:58.533Z,1015.00
2017-04-03T02:18:59.057Z,1015.01
2017-04-03T02:19:59.591Z,1015.01
2017-04-03T02:21:00.132Z,1015.01
2017-04-03T02:22:00.650Z,1015.00
2017-04-03T02:23:01.332Z,1015.08
2017-04-03T02:24:01.711Z,1015.10
2017-04-03T02:25:02.246Z,1015.18
2017-04-03T02:26:02.780Z,1015.14
2017-04-03T02:27:03.309Z,1015.16
2017-04-03T02:28:03.996Z,1015.18
2017-04-03T02:29:04.415Z,1015.14
2017-04-03T02:30:04.913Z,1015.12
2017-04-03T02:31:05.436Z,1015.12
2017-04-03T02:32:05.974Z,1015.20
2017-04-03T02:33:06.506Z,1015.20
2017-04-03T02:34:07.042Z,1015.19
2017-04-03T02:35:07.588Z,1015.18
2017-04-03T02:36:08.104Z,1015.15
2017-04-03T02:37:08.632Z,1015.17
2017-04-03T02:38:09.163Z,1015.12
2017-04-03T02:39:09.728Z,1015.16
2017-04-03T02:40:10.225Z,1015.14
2017-04-03T02:41:10.760Z,1015.22
2017-04-03T02:42:11.290Z,1015.18
2017-04-03T02:43:11.819Z,1015.19
2017-04-03T02:44:12.355Z,1015.19
2017-04-03T02:45:12.886Z,1015.23
2017-04-03T02:46:13.451Z,1015.22
2017-04-03T02:47:13.944Z,1015.21
2017-04-03T02:48:14.477Z,1015.23
2017-04-03T02:49:15.010Z,1015.21
2017-04-03T02:50:15.542Z,1015.23
2017-04-03T02:51:16.071Z,1015.19
2017-04-03T02:52:16.606Z,1015.17
2017-04-03T02:53:17.136Z,1015.21
2017-04-03T02:54:17.665Z,1015.21
2017-04-03T02:55:18.349Z,1015.20
2017-04-03T02:56:18.733Z,1015.21
2017-04-03T02:57:19.275Z,1015.22
2017-04-03T02:58:19.789Z,1015.20
2017-04-03T02:59:20.346Z,1015.24
2017-04-03T03:00:20.851Z,1015.21
2017-04-03T03:01:21.384Z,1015.27
2017-04-03T03:02:22.062Z,1015.29
2017-04-03T03:03:22.440Z,1015.29
2017-04-03T03:04:22.975Z,1015.31
2017-04-03T03:05:23.654Z,1015.31
2017-04-03T03:06:24.184Z,1015.23
2017-04-03T03:07:24.598Z,1015.25
2017-04-03T03:08:25.110Z,1015.25
2017-04-03T03:09:25.792Z,1015.26
2017-04-03T03:10:26.182Z,1015.27
2017-04-03T03:11:26.860Z,1015.28
2017-04-03T03:12:27.243Z,1015.28
2017-04-03T03:13:27.774Z,1015.28
2017-04-03T03:14:28.306Z,1015.28
2017-04-03T03:15:28.847Z,1015.25
2017-04-03T03:16:29.366Z,1015.29
2017-04-03T03:17:30.047Z,1015.38
2017-04-03T03:18:30.428Z,1015.34
2017-04-03T03:19:30.955Z,1015.34
2017-04-03T03:20:31.488Z,1015.40
2017-04-03T03:21:32.173Z,1015.41
2017-04-03T03:22:32.554Z,1015.39
2017-04-03T03:23:33.084Z,1015.38
2017-04-03T03:24:33.619Z,1015.37
2017-04-03T03:25:34.149Z,1015.37
2017-04-03T03:26:34.682Z,1015.42
2017-04-03T03:27:35.214Z,1015.38
2017-04-03T03:28:35.747Z,1015.46
2017-04-03T03:29:36.427Z,1015.45
2017-04-03T03:30:36.807Z,1015.42
2017-04-03T03:31:37.336Z,1015.41
2017-04-03T03:32:37.871Z,1015.40
2017-04-03T03:33:38.402Z,1015.40
2017-04-03T03:34:38.934Z,1015.42
2017-04-03T03:35:39.463Z,1015.47
2017-04-03T03:36:39.993Z,1015.46
2017-04-03T03:37:40.524Z,1015.49
2017-04-03T03:38:41.201Z,1015.48
2017-04-03T03:39:41.737Z,1015.50
2017-04-03T03:40:42.120Z,1015.51
2017-04-03T03:41:42.647Z,1015.49
2017-04-03T03:42:43.181Z,1015.58
2017-04-03T03:43:43.713Z,1015.49
2017-04-03T03:44:44.248Z,1015.51
2017-04-03T03:45:44.777Z,1015.57
2017-04-03T03:46:45.314Z,1015.51
2017-04-03T03:47:45.840Z,1015.55
2017-04-03T03:48:46.381Z,1015.52
2017-04-03T03:49:46.914Z,1015.53
2017-04-03T03:50:47.450Z,1015.53
2017-04-03T03:51:48.014Z,1015.57
2017-04-03T03:52:48.662Z,1015.58
2017-04-03T03:53:49.045Z,1015.54
2017-04-03T03:54:49.579Z,1015.59
2017-04-03T03:55:50.107Z,1015.61
2017-04-03T03:56:50.639Z,1015.60
2017-04-03T03:57:51.205Z,1015.59
2017-04-03T03:58:51.704Z,1015.64
2017-04-03T03:59:52.229Z,1015.63
2017-04-03T04:00:52.760Z,1015.62
2017-04-03T04:01:53.293Z,1015.64
2017-04-03T04:02:53.817Z,1015.62
2017-04-03T04:03:54.352Z,1015.63
2017-04-03T04:04:54.885Z,1015.65
2017-04-03T04:05:55.407Z,1015.62
2017-04-03T04:06:55.940Z,1015.64
2017-04-03T04:07:56.470Z,1015.67
2017-04-03T04:08:57.000Z,1015.67
2017-04-03T04:09:57.681Z,1015.64
2017-04-03T04:10:58.065Z,1015.67
2017-04-03T04:11:58.607Z,1015.67
2017-04-03T04:12:59.127Z,1015.67
2017-04-03T04:13:59.805Z,1015.72
2017-04-03T04:15:00.187Z,1015.71
2017-04-03T04:16:00.736Z,1015.71
2017-04-03T04:17:01.250Z,1015.72
2017-04-03T04:18:01.781Z,1015.71
2017-04-03T04:19:02.455Z,1015.72
2017-04-03T04:20:02.987Z,1015.77
2017-04-03T04:21:03.370Z,1015.79
2017-04-03T04:22:04.047Z,1015.80
2017-04-03T04:23:04.427Z,1015.77
2017-04-03T04:24:04.960Z,1015.79
2017-04-03T04:25:05.489Z,1015.83
2017-04-03T04:26:06.017Z,1015.83
2017-04-03T04:27:06.699Z,1015.86
2017-04-03T04:28:07.091Z,1015.86
2017-04-03T04:29:07.616Z,1015.83
2017-04-03T04:30:08.147Z,1015.84
2017-04-03T04:31:08.687Z,1015.81
2017-04-03T04:32:09.372Z,1015.84
2017-04-03T04:33:09.758Z,1015.87
2017-04-03T04:34:10.291Z,1015.88
2017-04-03T04:35:10.831Z,1015.88
2017-04-03T04:36:11.352Z,1015.93
2017-04-03T04:37:11.886Z,1015.96
2017-04-03T04:38:12.416Z,1015.96
2017-04-03T04:39:12.952Z,1015.94
2017-04-03T04:40:13.481Z,1016.01
2017-04-03T04:41:14.020Z,1015.99
2017-04-03T04:43:15.070Z,1016.02
2017-04-03T04:44:15.600Z,1016.05
2017-04-03T04:45:16.134Z,1016.03
2017-04-03T04:46:16.663Z,1016.10
2017-04-03T04:47:17.193Z,1016.09
2017-04-03T04:48:17.724Z,1016.14
2017-04-03T04:49:18.261Z,1016.15
2017-04-03T04:50:18.782Z,1016.14
2017-04-03T04:51:19.320Z,1016.13
2017-04-03T04:52:19.849Z,1016.14
2017-04-03T04:53:20.379Z,1016.16
2017-04-03T04:54:20.909Z,1016.15
2017-04-03T04:55:21.439Z,1016.12
2017-04-03T04:56:22.120Z,1016.16
2017-04-03T04:57:22.501Z,1016.11
2017-04-03T04:58:23.034Z,1016.11
2017-04-03T04:59:23.561Z,1016.16
2017-04-03T05:00:24.091Z,1016.14
2017-04-03T05:01:24.622Z,1016.12
2017-04-03T05:02:25.151Z,1016.15
2017-04-03T05:03:25.683Z,1016.21
2017-04-03T05:04:26.209Z,1016.18
2017-04-03T05:05:26.770Z,1016.21
2017-04-03T05:06:27.426Z,1016.22
2017-04-03T05:07:27.805Z,1016.26
2017-04-03T05:08:28.486Z,1016.23
2017-04-03T05:09:28.866Z,1016.26
2017-04-03T05:10:29.396Z,1016.27
2017-04-03T05:11:29.929Z,1016.26
2017-04-03T05:12:30.463Z,1016.29
2017-04-03T05:13:30.999Z,1016.30
2017-04-03T05:14:31.537Z,1016.32
2017-04-03T05:15:32.067Z,1016.32
2017-04-03T05:16:32.602Z,1016.35
2017-04-03T05:17:33.140Z,1016.40
2017-04-03T05:18:33.714Z,1016.36
2017-04-03T05:19:34.352Z,1016.35
2017-04-03T05:20:34.734Z,1016.37
2017-04-03T05:21:35.275Z,1016.32
2017-04-03T05:22:35.801Z,1016.39
2017-04-03T05:23:36.330Z,1016.37
2017-04-03T05:24:36.860Z,1016.39
2017-04-03T05:25:37.393Z,1016.41
2017-04-03T05:26:37.925Z,1016.40
2017-04-03T05:27:38.458Z,1016.41
2017-04-03T05:28:38.984Z,1016.48
2017-04-03T05:29:39.522Z,1016.50
2017-04-03T05:30:40.054Z,1016.51
2017-04-03T05:31:40.581Z,1016.53
2017-04-03T05:32:41.122Z,1016.57
2017-04-03T05:33:41.646Z,1016.49
2017-04-03T05:34:42.171Z,1016.53
2017-04-03T05:35:42.707Z,1016.57
2017-04-03T05:36:43.245Z,1016.53
2017-04-03T05:37:43.769Z,1016.55
2017-04-03T05:38:44.314Z,1016.56
2017-04-03T05:39:44.833Z,1016.55
2017-04-03T05:40:45.362Z,1016.59
2017-04-03T05:41:45.907Z,1016.59
2017-04-03T05:42:46.457Z,1016.63
2017-04-03T05:43:46.955Z,1016.59
2017-04-03T05:44:47.483Z,1016.62
2017-04-03T05:45:48.013Z,1016.63
2017-04-03T05:46:48.544Z,1016.63
2017-04-03T05:47:49.078Z,1016.64
2017-04-03T05:48:49.611Z,1016.61
2017-04-03T05:49:50.145Z,1016.59
2017-04-03T05:50:50.674Z,1016.63
2017-04-03T05:51:51.206Z,1016.66
2017-04-03T05:52:51.802Z,1016.73
2017-04-03T05:53:52.274Z,1016.70
2017-04-03T05:54:52.806Z,1016.72
2017-04-03T05:55:53.342Z,1016.71
2017-04-03T05:56:53.870Z,1016.72
2017-04-03T05:57:54.402Z,1016.69
2017-04-03T05:58:54.927Z,1016.72
2017-04-03T05:59:55.461Z,1016.68
2017-04-03T06:00:55.988Z,1016.65
2017-04-03T06:01:56.520Z,1016.69
2017-04-03T06:02:57.050Z,1016.68
2017-04-03T06:03:57.587Z,1016.69
2017-04-03T06:04:58.113Z,1016.68
2017-04-03T06:05:58.646Z,1016.74
2017-04-03T06:06:59.177Z,1016.72
2017-04-03T06:07:59.713Z,1016.75
2017-04-03T06:09:00.239Z,1016.76
2017-04-03T06:10:00.784Z,1016.73
2017-04-03T06:11:01.451Z,1016.75
2017-04-03T06:12:01.830Z,1016.79
2017-04-03T06:13:02.360Z,1016.77
2017-04-03T06:14:02.897Z,1016.82
2017-04-03T06:15:03.417Z,1016.80
2017-04-03T06:16:04.850Z,1016.81
2017-04-03T06:17:04.490Z,1016.84
2017-04-03T06:18:05.011Z,1016.81
2017-04-03T06:19:05.700Z,1016.81
2017-04-03T06:20:06.072Z,1016.84
2017-04-03T06:21:06.607Z,1016.81
2017-04-03T06:22:07.133Z,1016.85
2017-04-03T06:23:07.661Z,1016.83
2017-04-03T06:24:08.195Z,1016.84
2017-04-03T06:25:08.879Z,1016.88
2017-04-03T06:26:09.259Z,1016.88
2017-04-03T06:27:09.789Z,1016.92
2017-04-03T06:28:10.318Z,1016.86
2017-04-03T06:29:10.859Z,1016.96
2017-04-03T06:30:11.387Z,1016.92
2017-04-03T06:31:11.916Z,1016.90
2017-04-03T06:32:12.456Z,1016.98
2017-04-03T06:33:12.985Z,1016.96
2017-04-03T06:34:13.523Z,1016.99
2017-04-03T06:35:14.206Z,1017.00
2017-04-03T06:36:14.591Z,1017.01
2017-04-03T06:37:15.122Z,1016.97
2017-04-03T06:38:15.660Z,1016.96
2017-04-03T06:39:16.185Z,1016.95
2017-04-03T06:40:16.722Z,1016.97
2017-04-03T06:41:17.396Z,1016.92
2017-04-03T06:42:17.780Z,1016.97
2017-04-03T06:43:18.452Z,1016.97
2017-04-03T06:44:18.834Z,1017.00
2017-04-03T06:45:19.363Z,1017.05
2017-04-03T06:46:19.891Z,1017.05
2017-04-03T06:47:20.433Z,1017.06
2017-04-03T06:48:20.997Z,1017.06
2017-04-03T06:49:21.496Z,1017.05
2017-04-03T06:50:22.023Z,1017.09
2017-04-03T06:51:22.547Z,1017.09
2017-04-03T06:52:23.078Z,1017.10
2017-04-03T06:53:23.609Z,1017.10
2017-04-03T06:54:24.156Z,1017.09
2017-04-03T06:55:24.676Z,1017.11
2017-04-03T06:56:25.208Z,1017.13
2017-04-03T06:57:25.752Z,1017.07
2017-04-03T06:58:26.271Z,1017.12
2017-04-03T06:59:26.809Z,1017.14
2017-04-03T07:00:27.336Z,1017.07
2017-04-03T07:01:27.859Z,1017.14
2017-04-03T07:02:28.395Z,1017.13
2017-04-03T07:03:28.918Z,1017.16
2017-04-03T07:04:29.454Z,1017.13
2017-04-03T07:05:29.984Z,1017.13
2017-04-03T07:06:30.517Z,1017.19
2017-04-03T07:07:31.038Z,1017.14
2017-04-03T07:08:31.572Z,1017.13
2017-04-03T07:09:32.102Z,1017.14
2017-04-03T07:10:32.634Z,1017.10
2017-04-03T07:11:33.162Z,1017.11
2017-04-03T07:12:33.696Z,1017.08
2017-04-03T07:13:34.381Z,1017.10
2017-04-03T07:14:34.767Z,1017.11
2017-04-03T07:15:35.302Z,1017.08
2017-04-03T07:16:35.836Z,1017.07
2017-04-03T07:17:36.528Z,1017.07
2017-04-03T07:18:36.900Z,1017.08
2017-04-03T07:19:37.434Z,1017.04
2017-04-03T07:20:37.973Z,1017.12
2017-04-03T07:21:38.648Z,1017.09
2017-04-03T07:22:39.031Z,1017.12
2017-04-03T07:23:39.708Z,1017.15
2017-04-03T07:24:40.091Z,1017.10
2017-04-03T07:25:40.619Z,1017.16
2017-04-03T07:26:41.152Z,1017.15
2017-04-03T07:27:41.688Z,1017.19
2017-04-03T07:28:42.215Z,1017.18
2017-04-03T07:29:42.748Z,1017.16
2017-04-03T07:30:43.278Z,1017.17
2017-04-03T07:31:43.851Z,1017.19
2017-04-03T07:32:44.346Z,1017.21
2017-04-03T07:33:45.022Z,1017.23
2017-04-03T07:34:45.404Z,1017.23
2017-04-03T07:35:45.935Z,1017.23
2017-04-03T07:36:46.463Z,1017.28
2017-04-03T07:37:46.991Z,1017.29
2017-04-03T07:38:47.530Z,1017.26
2017-04-03T07:39:48.206Z,1017.25
2017-04-03T07:40:48.588Z,1017.27
2017-04-03T07:41:49.119Z,1017.24
2017-04-03T07:42:49.652Z,1017.26
2017-04-03T07:43:50.181Z,1017.25
2017-04-03T07:44:50.713Z,1017.28
2017-04-03T07:45:51.240Z,1017.26
2017-04-03T07:46:51.775Z,1017.23
2017-04-03T07:47:52.324Z,1017.22
2017-04-03T07:48:52.836Z,1017.23
2017-04-03T07:49:53.367Z,1017.24
2017-04-03T07:50:53.901Z,1017.24
2017-04-03T07:51:54.428Z,1017.29
2017-04-03T07:52:54.959Z,1017.26
2017-04-03T07:53:55.494Z,1017.27
2017-04-03T07:54:56.027Z,1017.25
2017-04-03T07:55:56.571Z,1017.23
2017-04-03T07:56:57.095Z,1017.22
2017-04-03T07:57:57.634Z,1017.23
2017-04-03T07:58:58.161Z,1017.28
2017-04-03T07:59:58.688Z,1017.24
2017-04-03T08:00:59.227Z,1017.24
2017-04-03T08:01:59.760Z,1017.26
2017-04-03T08:03:00.289Z,1017.26
2017-04-03T08:04:00.823Z,1017.27
2017-04-03T08:05:01.352Z,1017.31
2017-04-03T08:06:01.885Z,1017.31
2017-04-03T08:07:02.419Z,1017.37
2017-04-03T08:08:02.950Z,1017.31
2017-04-03T08:09:03.478Z,1017.33
2017-04-03T08:10:04.013Z,1017.32
2017-04-03T08:11:04.538Z,1017.29
2017-04-03T08:12:05.070Z,1017.31
2017-04-03T08:13:05.602Z,1017.24
2017-04-03T08:14:06.279Z,1017.31
2017-04-03T08:15:06.665Z,1017.32
2017-04-03T08:16:07.191Z,1017.33
2017-04-03T08:17:07.722Z,1017.34
2017-04-03T08:18:08.254Z,1017.35
2017-04-03T08:19:08.789Z,1017.36
2017-04-03T08:20:09.319Z,1017.36
2017-04-03T08:21:09.848Z,1017.28
2017-04-03T08:22:10.378Z,1017.36
2017-04-03T08:23:10.913Z,1017.32
2017-04-03T08:24:11.450Z,1017.33
2017-04-03T08:25:11.974Z,1017.37
2017-04-03T08:26:12.509Z,1017.37
2017-04-03T08:27:13.038Z,1017.38
2017-04-03T08:28:13.592Z,1017.37
2017-04-03T08:29:14.102Z,1017.39
2017-04-03T08:30:14.631Z,1017.39
2017-04-03T08:31:15.163Z,1017.43
2017-04-03T08:32:15.692Z,1017.42
2017-04-03T08:33:16.217Z,1017.43
2017-04-03T08:34:16.749Z,1017.44
2017-04-03T08:35:17.280Z,1017.45
2017-04-03T08:36:17.814Z,1017.45
2017-04-03T08:37:18.354Z,1017.43
2017-04-03T08:38:18.888Z,1017.46
2017-04-03T08:39:19.420Z,1017.54
2017-04-03T08:40:19.951Z,1017.53
2017-04-03T08:41:20.483Z,1017.53
2017-04-03T08:42:21.015Z,1017.58
2017-04-03T08:43:21.541Z,1017.55
2017-04-03T08:44:22.218Z,1017.56
2017-04-03T08:45:22.617Z,1017.57
2017-04-03T08:46:23.130Z,1017.59
2017-04-03T08:47:23.662Z,1017.58
2017-04-03T08:48:24.192Z,1017.52
2017-04-03T08:49:24.720Z,1017.58
2017-04-03T08:50:25.247Z,1017.57
2017-04-03T08:51:25.789Z,1017.61
2017-04-03T08:52:26.312Z,1017.55
2017-04-03T08:53:26.848Z,1017.57
2017-04-03T08:54:27.530Z,1017.57
2017-04-03T08:55:27.911Z,1017.60
2017-04-03T08:56:28.442Z,1017.61
2017-04-03T08:57:28.971Z,1017.57
2017-04-03T08:58:29.652Z,1017.57
2017-04-03T08:59:30.037Z,1017.63
2017-04-03T09:00:30.562Z,1017.61
2017-04-03T09:01:31.097Z,1017.63
2017-04-03T09:02:31.655Z,1017.62
2017-04-03T09:03:32.154Z,1017.63
2017-04-03T09:04:32.683Z,1017.62
2017-04-03T09:05:33.217Z,1017.65
2017-04-03T09:06:33.893Z,1017.64
2017-04-03T09:07:34.291Z,1017.62
2017-04-03T09:08:34.800Z,1017.59
2017-04-03T09:09:35.334Z,1017.68
2017-04-03T09:10:35.864Z,1017.65
2017-04-03T09:11:36.395Z,1017.64
2017-04-03T09:12:36.926Z,1017.66
2017-04-03T09:13:37.456Z,1017.65
2017-04-03T09:14:37.988Z,1017.70
2017-04-03T09:15:38.527Z,1017.73
2017-04-03T09:16:39.054Z,1017.70
2017-04-03T09:17:39.593Z,1017.70
2017-04-03T09:18:40.125Z,1017.72
2017-04-03T09:19:40.670Z,1017.73
2017-04-03T09:20:41.201Z,1017.72
2017-04-03T09:21:41.725Z,1017.71
2017-04-03T09:22:42.262Z,1017.71
2017-04-03T09:23:42.783Z,1017.69
2017-04-03T09:24:43.307Z,1017.70
2017-04-03T09:25:43.839Z,1017.68
2017-04-03T09:26:44.373Z,1017.68
2017-04-03T09:27:44.905Z,1017.70
2017-04-03T09:28:45.429Z,1017.73
2017-04-03T09:29:45.962Z,1017.71
2017-04-03T09:30:46.504Z,1017.69
2017-04-03T09:31:47.022Z,1017.73
2017-04-03T09:32:47.553Z,1017.67
2017-04-03T09:33:48.082Z,1017.74
2017-04-03T09:34:48.611Z,1017.73
2017-04-03T09:35:49.148Z,1017.70
2017-04-03T09:36:49.678Z,1017.65
2017-04-03T09:37:50.213Z,1017.77
2017-04-03T09:38:50.735Z,1017.74
2017-04-03T09:39:51.276Z,1017.74
2017-04-03T09:40:51.805Z,1017.71
2017-04-03T09:41:52.343Z,1017.66
2017-04-03T09:42:52.864Z,1017.73
2017-04-03T09:43:53.397Z,1017.70
2017-04-03T09:44:53.926Z,1017.69
2017-04-03T09:45:54.456Z,1017.72
2017-04-03T09:46:54.988Z,1017.73
2017-04-03T09:47:55.515Z,1017.77
2017-04-03T09:48:56.046Z,1017.78
2017-04-03T09:49:56.573Z,1017.69
2017-04-03T09:50:57.105Z,1017.71
2017-04-03T09:51:57.635Z,1017.72
2017-04-03T09:52:58.166Z,1017.71
2017-04-03T09:53:58.700Z,1017.77
2017-04-03T09:54:59.228Z,1017.72
2017-04-03T09:55:59.762Z,1017.72
2017-04-03T09:57:00.294Z,1017.74
2017-04-03T09:58:00.833Z,1017.71
2017-04-03T09:59:01.363Z,1017.73
2017-04-03T10:00:01.901Z,1017.77
2017-04-03T10:01:02.436Z,1017.73
2017-04-03T10:02:02.964Z,1017.79
2017-04-03T10:03:03.493Z,1017.83
2017-04-03T10:04:04.026Z,1017.79
2017-04-03T10:05:04.556Z,1017.79
2017-04-03T10:06:05.091Z,1017.83
2017-04-03T10:07:05.625Z,1017.86
2017-04-03T10:08:06.157Z,1017.85
2017-04-03T10:09:06.683Z,1017.86
2017-04-03T10:10:07.237Z,1017.83
2017-04-03T10:11:07.750Z,1017.85
2017-04-03T10:12:08.276Z,1017.86
2017-04-03T10:13:08.807Z,1017.88
2017-04-03T10:14:09.339Z,1017.82
2017-04-03T10:15:10.019Z,1017.82
2017-04-03T10:16:10.400Z,1017.85
2017-04-03T10:17:10.927Z,1017.89
2017-04-03T10:18:11.459Z,1017.90
2017-04-03T10:19:11.991Z,1017.86
2017-04-03T10:20:12.521Z,1017.85
2017-04-03T10:21:13.049Z,1017.86
2017-04-03T10:22:13.582Z,1017.83
2017-04-03T10:23:14.109Z,1017.89
2017-04-03T10:24:14.644Z,1017.90
2017-04-03T10:25:15.201Z,1017.87
2017-04-03T10:26:15.702Z,1017.81
2017-04-03T10:27:16.238Z,1017.88
2017-04-03T10:28:16.767Z,1017.85
2017-04-03T10:29:17.293Z,1017.82
2017-04-03T10:30:17.831Z,1017.88
2017-04-03T10:31:18.506Z,1017.83
2017-04-03T10:32:18.885Z,1017.86
2017-04-03T10:33:19.415Z,1017.89
2017-04-03T10:34:19.942Z,1017.92
2017-04-03T10:35:20.472Z,1017.95
2017-04-03T10:36:21.012Z,1017.93
2017-04-03T10:37:21.535Z,1017.81
2017-04-03T10:38:22.070Z,1017.90
2017-04-03T10:39:22.598Z,1017.93
2017-04-03T10:40:23.142Z,1017.87
2017-04-03T10:41:23.667Z,1017.86
2017-04-03T10:42:24.202Z,1017.88
2017-04-03T10:43:24.733Z,1017.88
2017-04-03T10:44:25.265Z,1017.88
2017-04-03T10:45:25.798Z,1017.88
2017-04-03T10:46:26.326Z,1017.85
2017-04-03T10:47:26.855Z,1017.82
2017-04-03T10:48:27.386Z,1017.82
2017-04-03T10:49:27.917Z,1017.79
2017-04-03T10:50:28.446Z,1017.80
2017-04-03T10:51:28.977Z,1017.74
2017-04-03T10:52:29.507Z,1017.74
2017-04-03T10:53:30.187Z,1017.75
2017-04-03T10:54:30.570Z,1017.75
2017-04-03T10:55:31.098Z,1017.70
2017-04-03T10:56:31.634Z,1017.71
2017-04-03T10:57:32.165Z,1017.71
2017-04-03T10:58:32.692Z,1017.75
2017-04-03T10:59:33.222Z,1017.73
2017-04-03T11:00:33.762Z,1017.70
2017-04-03T11:01:34.286Z,1017.64
2017-04-03T11:02:34.829Z,1017.68
2017-04-03T11:03:35.346Z,1017.65
2017-04-03T11:04:35.908Z,1017.71
2017-04-03T11:05:36.409Z,1017.65
2017-04-03T11:06:36.948Z,1017.66
2017-04-03T11:07:37.470Z,1017.67
2017-04-03T11:08:38.003Z,1017.63
2017-04-03T11:09:38.684Z,1017.64
2017-04-03T11:10:39.067Z,1017.62
2017-04-03T11:11:39.594Z,1017.70
2017-04-03T11:12:40.140Z,1017.65
2017-04-03T11:13:40.656Z,1017.65
2017-04-03T11:14:41.334Z,1017.67
2017-04-03T11:15:41.718Z,1017.70
2017-04-03T11:16:42.245Z,1017.66
2017-04-03T11:17:42.774Z,1017.64
2017-04-03T11:18:43.458Z,1017.65
2017-04-03T11:19:43.995Z,1017.60
2017-04-03T11:20:44.381Z,1017.66
2017-04-03T11:21:44.914Z,1017.70
2017-04-03T11:22:45.446Z,1017.68
2017-04-03T11:23:45.975Z,1017.67
2017-04-03T11:24:46.512Z,1017.65
2017-04-03T11:25:47.036Z,1017.70
2017-04-03T11:26:47.567Z,1017.75
2017-04-03T11:27:48.096Z,1017.67
2017-04-03T11:28:48.627Z,1017.72
2017-04-03T11:29:49.160Z,1017.70
2017-04-03T11:30:49.685Z,1017.72
2017-04-03T11:31:50.213Z,1017.72
2017-04-03T11:32:50.750Z,1017.72
2017-04-03T11:33:51.279Z,1017.71
2017-04-03T11:34:51.812Z,1017.73
2017-04-03T11:35:52.497Z,1017.76
2017-04-03T11:36:52.880Z,1017.76
2017-04-03T11:37:53.403Z,1017.71
2017-04-03T11:38:53.936Z,1017.75
2017-04-03T11:39:54.465Z,1017.75
2017-04-03T11:40:55.000Z,1017.66
2017-04-03T11:41:55.542Z,1017.63
2017-04-03T11:42:56.059Z,1017.64
2017-04-03T11:43:56.738Z,1017.64
2017-04-03T11:44:57.149Z,1017.66
2017-04-03T11:45:57.649Z,1017.70
2017-04-03T11:46:58.181Z,1017.68
2017-04-03T11:47:58.716Z,1017.63
2017-04-03T11:48:59.242Z,1017.67
2017-04-03T11:49:59.772Z,1017.67
2017-04-03T11:51:00.307Z,1017.59
2017-04-03T11:52:00.835Z,1017.62
2017-04-03T11:53:01.512Z,1017.65
2017-04-03T11:54:01.910Z,1017.63
2017-04-03T11:55:02.428Z,1017.62
2017-04-03T11:56:02.970Z,1017.61
2017-04-03T11:57:03.629Z,1017.63
2017-04-03T11:58:04.028Z,1017.58
2017-04-03T11:59:04.551Z,1017.63
2017-04-03T12:00:05.084Z,1017.64
2017-04-03T12:01:05.620Z,1017.68
2017-04-03T12:02:06.159Z,1017.60
2017-04-03T12:03:06.691Z,1017.65
2017-04-03T12:04:07.224Z,1017.56
2017-04-03T12:05:07.756Z,1017.56
2017-04-03T12:06:08.281Z,1017.56
2017-04-03T12:07:08.817Z,1017.58
2017-04-03T12:08:09.349Z,1017.55
2017-04-03T12:09:09.882Z,1017.56
2017-04-03T12:10:10.405Z,1017.57
2017-04-03T12:11:10.939Z,1017.56
2017-04-03T12:12:11.465Z,1017.52
2017-04-03T12:13:11.997Z,1017.56